sensor_id;sensor_type;location;lat;lon;timestamp;P1;durP1;ratioP1;P2;durP2;ratioP2
62947;SDS011;51940;52.126;-0.994;2022-09-29T00:01:54;3.40;;;2.90;;
62947;SDS011;51940;52.126;-0.994;2022-09-29T00:04:19;3.50;;;2.80;;
62947;SDS011;51940;52.126;-0.994;2022-09-29T00:06:45;3.00;;;2.70;;
62947;SDS011;51940;52.126;-0.994;2022-09-29T00:09:10;3.30;;;3.00;;
62947;SDS011;51940;52.126;-0.994;2022-09-29T00:11:36;3.70;;;2.60;;
62947;SDS011;51940;52.126;-0.994;2022-09-29T00:14:01;3.90;;;2.40;;
62947;SDS011;51940;52.126;-0.994;2022-09-29T00:16:26;3.20;;;2.70;;
62947;SDS011;51940;52.126;-0.994;2022-09-29T00:18:53;3.30;;;2.30;;
62947;SDS011;51940;52.126;-0.994;2022-09-29T00:21:19;2.70;;;2.20;;
62947;SDS011;51940;52.126;-0.994;2022-09-29T00:23:46;5.90;;;2.50;;
62947;SDS011;51940;52.126;-0.994;2022-09-29T00:26:15;4.10;;;2.40;;
62947;SDS011;51940;52.126;-0.994;2022-09-29T00:28:49;2.90;;;2.50;;
62947;SDS011;51940;52.126;-0.994;2022-09-29T00:31:17;2.40;;;2.20;;
62947;SDS011;51940;52.126;-0.994;2022-09-29T00:33:44;3.50;;;2.30;;
62947;SDS011;51940;52.126;-0.994;2022-09-29T00:36:13;2.40;;;2.20;;
62947;SDS011;51940;52.126;-0.994;2022-09-29T00:38:41;3.50;;;2.20;;
62947;SDS011;51940;52.126;-0.994;2022-09-29T00:41:10;2.70;;;1.90;;
62947;SDS011;51940;52.126;-0.994;2022-09-29T00:51:39;2.10;;;1.90;;
62947;SDS011;51940;52.126;-0.994;2022-09-29T00:54:07;3.20;;;2.20;;
62947;SDS011;51940;52.126;-0.994;2022-09-29T00:56:34;2.70;;;2.00;;
62947;SDS011;51940;52.126;-0.994;2022-09-29T00:59:03;1.80;;;1.70;;
62947;SDS011;51940;52.126;-0.994;2022-09-29T01:01:33;3.50;;;1.70;;
62947;SDS011;51940;52.126;-0.994;2022-09-29T01:04:03;2.10;;;1.90;;
62947;SDS011;51940;52.126;-0.994;2022-09-29T01:06:37;2.20;;;2.00;;
62947;SDS011;51940;52.126;-0.994;2022-09-29T01:09:08;2.00;;;1.80;;
62947;SDS011;51940;52.126;-0.994;2022-09-29T01:11:37;1.90;;;1.80;;
62947;SDS011;51940;52.126;-0.994;2022-09-29T01:14:04;1.80;;;1.70;;
62947;SDS011;51940;52.126;-0.994;2022-09-29T01:16:33;2.80;;;2.10;;
62947;SDS011;51940;52.126;-0.994;2022-09-29T01:19:01;1.80;;;1.70;;
62947;SDS011;51940;52.126;-0.994;2022-09-29T01:21:34;1.70;;;1.60;;
62947;SDS011;51940;52.126;-0.994;2022-09-29T01:30:03;2.20;;;1.60;;
62947;SDS011;51940;52.126;-0.994;2022-09-29T01:32:39;1.60;;;1.50;;
62947;SDS011;51940;52.126;-0.994;2022-09-29T01:35:25;2.10;;;1.50;;
62947;SDS011;51940;52.126;-0.994;2022-09-29T01:43:08;1.60;;;1.50;;
62947;SDS011;51940;52.126;-0.994;2022-09-29T01:45:41;2.00;;;1.50;;
62947;SDS011;51940;52.126;-0.994;2022-09-29T01:48:14;3.10;;;1.40;;
62947;SDS011;51940;52.126;-0.994;2022-09-29T01:50:47;1.60;;;1.50;;
62947;SDS011;51940;52.126;-0.994;2022-09-29T01:53:18;2.00;;;1.50;;
62947;SDS011;51940;52.126;-0.994;2022-09-29T01:55:50;1.60;;;1.50;;
62947;SDS011;51940;52.126;-0.994;2022-09-29T01:58:37;1.50;;;1.40;;
62947;SDS011;51940;52.126;-0.994;2022-09-29T02:01:23;1.40;;;1.30;;
62947;SDS011;51940;52.126;-0.994;2022-09-29T02:03:59;1.70;;;1.40;;
62947;SDS011;51940;52.126;-0.994;2022-09-29T02:06:40;1.40;;;1.20;;
62947;SDS011;51940;52.126;-0.994;2022-09-29T02:09:30;2.10;;;1.40;;
62947;SDS011;51940;52.126;-0.994;2022-09-29T02:12:00;1.50;;;1.30;;
62947;SDS011;51940;52.126;-0.994;2022-09-29T02:14:29;2.00;;;1.60;;
62947;SDS011;51940;52.126;-0.994;2022-09-29T02:17:11;5.70;;;1.40;;
62947;SDS011;51940;52.126;-0.994;2022-09-29T02:19:44;2.70;;;1.40;;
62947;SDS011;51940;52.126;-0.994;2022-09-29T02:22:11;1.60;;;1.30;;
62947;SDS011;51940;52.126;-0.994;2022-09-29T02:24:37;1.40;;;1.30;;
62947;SDS011;51940;52.126;-0.994;2022-09-29T02:27:03;1.80;;;1.30;;
62947;SDS011;51940;52.126;-0.994;2022-09-29T02:29:29;1.50;;;1.40;;
62947;SDS011;51940;52.126;-0.994;2022-09-29T02:31:56;1.50;;;1.40;;
62947;SDS011;51940;52.126;-0.994;2022-09-29T02:34:25;1.50;;;1.40;;
62947;SDS011;51940;52.126;-0.994;2022-09-29T02:39:43;1.40;;;1.30;;
62947;SDS011;51940;52.126;-0.994;2022-09-29T02:55:39;1.10;;;1.10;;
62947;SDS011;51940;52.126;-0.994;2022-09-29T02:58:24;1.80;;;1.40;;
62947;SDS011;51940;52.126;-0.994;2022-09-29T03:00:56;1.30;;;1.20;;
62947;SDS011;51940;52.126;-0.994;2022-09-29T03:03:23;2.10;;;1.20;;
62947;SDS011;51940;52.126;-0.994;2022-09-29T03:05:49;1.50;;;1.40;;
62947;SDS011;51940;52.126;-0.994;2022-09-29T03:08:15;1.70;;;1.60;;
62947;SDS011;51940;52.126;-0.994;2022-09-29T03:10:40;1.80;;;1.20;;
62947;SDS011;51940;52.126;-0.994;2022-09-29T03:13:06;1.30;;;1.20;;
62947;SDS011;51940;52.126;-0.994;2022-09-29T03:15:31;1.30;;;1.20;;
62947;SDS011;51940;52.126;-0.994;2022-09-29T03:17:56;1.50;;;1.30;;
62947;SDS011;51940;52.126;-0.994;2022-09-29T03:20:22;1.70;;;1.40;;
62947;SDS011;51940;52.126;-0.994;2022-09-29T03:22:48;2.20;;;1.20;;
62947;SDS011;51940;52.126;-0.994;2022-09-29T03:25:14;1.10;;;1.10;;
62947;SDS011;51940;52.126;-0.994;2022-09-29T03:27:39;1.50;;;1.40;;
62947;SDS011;51940;52.126;-0.994;2022-09-29T03:30:05;2.60;;;2.00;;
62947;SDS011;51940;52.126;-0.994;2022-09-29T03:32:31;2.30;;;1.40;;
62947;SDS011;51940;52.126;-0.994;2022-09-29T03:34:57;1.50;;;1.40;;
62947;SDS011;51940;52.126;-0.994;2022-09-29T03:37:22;1.60;;;1.50;;
62947;SDS011;51940;52.126;-0.994;2022-09-29T03:39:47;1.30;;;1.20;;
62947;SDS011;51940;52.126;-0.994;2022-09-29T03:42:13;1.50;;;1.40;;
62947;SDS011;51940;52.126;-0.994;2022-09-29T03:44:38;2.20;;;1.50;;
62947;SDS011;51940;52.126;-0.994;2022-09-29T03:47:04;1.60;;;1.50;;
62947;SDS011;51940;52.126;-0.994;2022-09-29T03:49:29;1.90;;;1.30;;
62947;SDS011;51940;52.126;-0.994;2022-09-29T03:51:55;1.90;;;1.30;;
62947;SDS011;51940;52.126;-0.994;2022-09-29T03:54:20;1.80;;;1.40;;
62947;SDS011;51940;52.126;-0.994;2022-09-29T03:56:45;1.40;;;1.30;;
62947;SDS011;51940;52.126;-0.994;2022-09-29T03:59:11;2.50;;;1.30;;
62947;SDS011;51940;52.126;-0.994;2022-09-29T04:01:38;1.40;;;1.30;;
62947;SDS011;51940;52.126;-0.994;2022-09-29T04:04:05;1.60;;;1.40;;
62947;SDS011;51940;52.126;-0.994;2022-09-29T04:06:33;1.40;;;1.30;;
62947;SDS011;51940;52.126;-0.994;2022-09-29T04:09:00;1.50;;;1.30;;
62947;SDS011;51940;52.126;-0.994;2022-09-29T04:11:25;2.20;;;1.30;;
62947;SDS011;51940;52.126;-0.994;2022-09-29T04:13:51;2.00;;;1.40;;
62947;SDS011;51940;52.126;-0.994;2022-09-29T04:16:16;1.50;;;1.40;;
62947;SDS011;51940;52.126;-0.994;2022-09-29T04:18:42;2.30;;;1.50;;
62947;SDS011;51940;52.126;-0.994;2022-09-29T04:21:07;1.50;;;1.40;;
62947;SDS011;51940;52.126;-0.994;2022-09-29T04:23:33;1.40;;;1.30;;
62947;SDS011;51940;52.126;-0.994;2022-09-29T04:26:00;1.70;;;1.60;;
62947;SDS011;51940;52.126;-0.994;2022-09-29T04:28:26;1.40;;;1.30;;
62947;SDS011;51940;52.126;-0.994;2022-09-29T04:30:52;2.20;;;1.40;;
62947;SDS011;51940;52.126;-0.994;2022-09-29T04:33:18;2.10;;;1.40;;
62947;SDS011;51940;52.126;-0.994;2022-09-29T04:35:43;1.50;;;1.30;;
62947;SDS011;51940;52.126;-0.994;2022-09-29T04:38:08;2.00;;;1.50;;
62947;SDS011;51940;52.126;-0.994;2022-09-29T04:40:34;1.60;;;1.50;;
62947;SDS011;51940;52.126;-0.994;2022-09-29T04:43:00;1.70;;;1.40;;
62947;SDS011;51940;52.126;-0.994;2022-09-29T04:45:26;1.50;;;1.40;;
62947;SDS011;51940;52.126;-0.994;2022-09-29T04:47:52;2.20;;;1.80;;
62947;SDS011;51940;52.126;-0.994;2022-09-29T04:50:17;2.60;;;1.30;;
62947;SDS011;51940;52.126;-0.994;2022-09-29T04:52:43;2.60;;;1.50;;
62947;SDS011;51940;52.126;-0.994;2022-09-29T04:55:09;1.60;;;1.40;;
62947;SDS011;51940;52.126;-0.994;2022-09-29T04:57:35;2.00;;;1.60;;
62947;SDS011;51940;52.126;-0.994;2022-09-29T05:00:05;1.40;;;1.30;;
62947;SDS011;51940;52.126;-0.994;2022-09-29T05:02:32;1.90;;;1.60;;
62947;SDS011;51940;52.126;-0.994;2022-09-29T05:04:59;1.60;;;1.50;;
62947;SDS011;51940;52.126;-0.994;2022-09-29T05:07:25;1.60;;;1.50;;
62947;SDS011;51940;52.126;-0.994;2022-09-29T05:09:50;1.70;;;1.60;;
62947;SDS011;51940;52.126;-0.994;2022-09-29T05:12:15;2.30;;;1.90;;
62947;SDS011;51940;52.126;-0.994;2022-09-29T05:14:41;1.50;;;1.40;;
62947;SDS011;51940;52.126;-0.994;2022-09-29T05:17:06;1.80;;;1.50;;
62947;SDS011;51940;52.126;-0.994;2022-09-29T05:19:32;2.00;;;1.80;;
62947;SDS011;51940;52.126;-0.994;2022-09-29T05:21:57;2.30;;;1.80;;
62947;SDS011;51940;52.126;-0.994;2022-09-29T05:24:23;2.30;;;1.60;;
62947;SDS011;51940;52.126;-0.994;2022-09-29T05:26:49;2.50;;;1.80;;
62947;SDS011;51940;52.126;-0.994;2022-09-29T05:29:15;1.90;;;1.80;;
62947;SDS011;51940;52.126;-0.994;2022-09-29T05:31:41;2.10;;;1.90;;
62947;SDS011;51940;52.126;-0.994;2022-09-29T05:34:06;2.00;;;1.90;;
62947;SDS011;51940;52.126;-0.994;2022-09-29T05:36:32;2.20;;;1.90;;
62947;SDS011;51940;52.126;-0.994;2022-09-29T05:38:57;2.00;;;1.80;;
62947;SDS011;51940;52.126;-0.994;2022-09-29T05:41:23;3.20;;;2.10;;
62947;SDS011;51940;52.126;-0.994;2022-09-29T05:43:49;2.20;;;2.00;;
62947;SDS011;51940;52.126;-0.994;2022-09-29T05:46:17;2.10;;;1.70;;
62947;SDS011;51940;52.126;-0.994;2022-09-29T05:48:46;2.00;;;1.80;;
62947;SDS011;51940;52.126;-0.994;2022-09-29T05:51:14;2.30;;;2.10;;
62947;SDS011;51940;52.126;-0.994;2022-09-29T05:53:41;3.60;;;2.00;;
62947;SDS011;51940;52.126;-0.994;2022-09-29T05:56:11;1.80;;;1.70;;
62947;SDS011;51940;52.126;-0.994;2022-09-29T05:58:39;2.20;;;2.00;;
62947;SDS011;51940;52.126;-0.994;2022-09-29T06:01:06;2.40;;;2.10;;
62947;SDS011;51940;52.126;-0.994;2022-09-29T06:03:33;2.20;;;2.10;;
62947;SDS011;51940;52.126;-0.994;2022-09-29T06:06:09;2.50;;;2.20;;
62947;SDS011;51940;52.126;-0.994;2022-09-29T06:08:42;2.50;;;2.30;;
62947;SDS011;51940;52.126;-0.994;2022-09-29T06:11:13;2.50;;;2.00;;
62947;SDS011;51940;52.126;-0.994;2022-09-29T06:13:40;3.50;;;2.30;;
62947;SDS011;51940;52.126;-0.994;2022-09-29T06:16:08;3.40;;;2.40;;
62947;SDS011;51940;52.126;-0.994;2022-09-29T06:18:34;2.70;;;2.50;;
62947;SDS011;51940;52.126;-0.994;2022-09-29T06:21:03;2.80;;;2.40;;
62947;SDS011;51940;52.126;-0.994;2022-09-29T06:23:30;2.50;;;2.30;;
62947;SDS011;51940;52.126;-0.994;2022-09-29T06:25:57;2.50;;;2.30;;
62947;SDS011;51940;52.126;-0.994;2022-09-29T06:28:24;2.80;;;2.50;;
62947;SDS011;51940;52.126;-0.994;2022-09-29T06:30:49;2.60;;;2.40;;
62947;SDS011;51940;52.126;-0.994;2022-09-29T06:33:16;2.60;;;2.40;;
62947;SDS011;51940;52.126;-0.994;2022-09-29T06:35:45;2.50;;;2.30;;
62947;SDS011;51940;52.126;-0.994;2022-09-29T06:38:31;3.30;;;2.60;;
62947;SDS011;51940;52.126;-0.994;2022-09-29T06:40:56;3.10;;;2.80;;
62947;SDS011;51940;52.126;-0.994;2022-09-29T06:43:22;3.10;;;2.50;;
62947;SDS011;51940;52.126;-0.994;2022-09-29T06:45:47;2.80;;;2.50;;
62947;SDS011;51940;52.126;-0.994;2022-09-29T06:48:13;2.90;;;2.70;;
62947;SDS011;51940;52.126;-0.994;2022-09-29T06:50:38;2.90;;;2.60;;
62947;SDS011;51940;52.126;-0.994;2022-09-29T06:53:03;3.70;;;3.10;;
62947;SDS011;51940;52.126;-0.994;2022-09-29T06:55:29;3.20;;;2.80;;
62947;SDS011;51940;52.126;-0.994;2022-09-29T06:57:54;3.20;;;2.90;;
62947;SDS011;51940;52.126;-0.994;2022-09-29T07:00:20;4.30;;;3.40;;
62947;SDS011;51940;52.126;-0.994;2022-09-29T07:02:45;4.20;;;3.10;;
62947;SDS011;51940;52.126;-0.994;2022-09-29T07:05:11;3.70;;;3.10;;
62947;SDS011;51940;52.126;-0.994;2022-09-29T07:07:36;3.90;;;3.20;;
62947;SDS011;51940;52.126;-0.994;2022-09-29T07:10:02;3.80;;;3.30;;
62947;SDS011;51940;52.126;-0.994;2022-09-29T07:12:27;3.50;;;3.20;;
62947;SDS011;51940;52.126;-0.994;2022-09-29T07:14:54;6.50;;;3.40;;
62947;SDS011;51940;52.126;-0.994;2022-09-29T07:17:20;4.40;;;3.60;;
62947;SDS011;51940;52.126;-0.994;2022-09-29T07:19:45;3.40;;;3.00;;
62947;SDS011;51940;52.126;-0.994;2022-09-29T07:22:11;4.20;;;3.80;;
62947;SDS011;51940;52.126;-0.994;2022-09-29T07:24:36;3.80;;;3.50;;
62947;SDS011;51940;52.126;-0.994;2022-09-29T07:27:01;4.50;;;3.70;;
62947;SDS011;51940;52.126;-0.994;2022-09-29T07:29:27;4.70;;;4.00;;
62947;SDS011;51940;52.126;-0.994;2022-09-29T07:31:56;4.80;;;4.30;;
62947;SDS011;51940;52.126;-0.994;2022-09-29T07:34:22;4.30;;;3.80;;
62947;SDS011;51940;52.126;-0.994;2022-09-29T07:36:48;5.40;;;4.40;;
62947;SDS011;51940;52.126;-0.994;2022-09-29T07:39:14;4.40;;;3.70;;
62947;SDS011;51940;52.126;-0.994;2022-09-29T07:41:39;5.50;;;4.40;;
62947;SDS011;51940;52.126;-0.994;2022-09-29T07:44:04;4.80;;;4.30;;
62947;SDS011;51940;52.126;-0.994;2022-09-29T07:46:30;5.40;;;4.80;;
62947;SDS011;51940;52.126;-0.994;2022-09-29T07:48:56;4.80;;;4.30;;
62947;SDS011;51940;52.126;-0.994;2022-09-29T07:51:22;5.00;;;4.20;;
62947;SDS011;51940;52.126;-0.994;2022-09-29T07:53:47;5.60;;;4.90;;
62947;SDS011;51940;52.126;-0.994;2022-09-29T07:56:17;6.70;;;5.60;;
62947;SDS011;51940;52.126;-0.994;2022-09-29T07:58:45;6.30;;;5.00;;
62947;SDS011;51940;52.126;-0.994;2022-09-29T08:01:14;6.50;;;5.10;;
62947;SDS011;51940;52.126;-0.994;2022-09-29T08:03:41;7.80;;;5.10;;
62947;SDS011;51940;52.126;-0.994;2022-09-29T08:06:08;6.00;;;5.40;;
62947;SDS011;51940;52.126;-0.994;2022-09-29T08:08:38;8.40;;;5.80;;
62947;SDS011;51940;52.126;-0.994;2022-09-29T08:11:05;8.10;;;5.50;;
62947;SDS011;51940;52.126;-0.994;2022-09-29T08:13:32;6.60;;;5.70;;
62947;SDS011;51940;52.126;-0.994;2022-09-29T08:16:00;9.10;;;6.10;;
62947;SDS011;51940;52.126;-0.994;2022-09-29T08:18:27;8.20;;;6.30;;
62947;SDS011;51940;52.126;-0.994;2022-09-29T08:20:53;7.30;;;6.20;;
62947;SDS011;51940;52.126;-0.994;2022-09-29T08:23:19;9.20;;;6.40;;
62947;SDS011;51940;52.126;-0.994;2022-09-29T08:25:46;10.90;;;7.40;;
62947;SDS011;51940;52.126;-0.994;2022-09-29T08:28:11;10.00;;;7.20;;
62947;SDS011;51940;52.126;-0.994;2022-09-29T08:30:37;9.30;;;6.70;;
62947;SDS011;51940;52.126;-0.994;2022-09-29T08:33:03;9.60;;;7.40;;
62947;SDS011;51940;52.126;-0.994;2022-09-29T08:35:31;9.70;;;6.40;;
62947;SDS011;51940;52.126;-0.994;2022-09-29T08:37:56;11.50;;;7.10;;
62947;SDS011;51940;52.126;-0.994;2022-09-29T08:40:23;12.60;;;6.50;;
62947;SDS011;51940;52.126;-0.994;2022-09-29T08:45:28;11.60;;;7.60;;
62947;SDS011;51940;52.126;-0.994;2022-09-29T08:48:01;8.70;;;6.20;;
62947;SDS011;51940;52.126;-0.994;2022-09-29T08:50:42;8.90;;;6.10;;
62947;SDS011;51940;52.126;-0.994;2022-09-29T08:53:13;9.40;;;6.30;;
62947;SDS011;51940;52.126;-0.994;2022-09-29T08:58:31;9.90;;;6.40;;
62947;SDS011;51940;52.126;-0.994;2022-09-29T09:06:15;9.10;;;6.00;;
62947;SDS011;51940;52.126;-0.994;2022-09-29T09:14:28;8.90;;;6.10;;
62947;SDS011;51940;52.126;-0.994;2022-09-29T09:19:52;8.20;;;6.10;;
62947;SDS011;51940;52.126;-0.994;2022-09-29T09:24:57;8.60;;;6.90;;
62947;SDS011;51940;52.126;-0.994;2022-09-29T09:27:26;11.00;;;6.60;;
62947;SDS011;51940;52.126;-0.994;2022-09-29T09:30:03;10.90;;;7.80;;
62947;SDS011;51940;52.126;-0.994;2022-09-29T09:32:32;9.10;;;7.30;;
62947;SDS011;51940;52.126;-0.994;2022-09-29T09:35:19;10.00;;;6.70;;
62947;SDS011;51940;52.126;-0.994;2022-09-29T09:37:45;11.40;;;6.50;;
62947;SDS011;51940;52.126;-0.994;2022-09-29T09:40:16;11.10;;;7.40;;
62947;SDS011;51940;52.126;-0.994;2022-09-29T09:43:01;11.10;;;7.60;;
62947;SDS011;51940;52.126;-0.994;2022-09-29T09:45:31;12.10;;;7.80;;
62947;SDS011;51940;52.126;-0.994;2022-09-29T09:48:35;9.50;;;7.10;;
62947;SDS011;51940;52.126;-0.994;2022-09-29T09:51:40;9.20;;;7.20;;
62947;SDS011;51940;52.126;-0.994;2022-09-29T09:54:08;10.00;;;6.90;;
62947;SDS011;51940;52.126;-0.994;2022-09-29T09:59:53;10.20;;;6.90;;
62947;SDS011;51940;52.126;-0.994;2022-09-29T10:02:30;10.10;;;7.90;;
62947;SDS011;51940;52.126;-0.994;2022-09-29T10:04:56;8.60;;;6.40;;
62947;SDS011;51940;52.126;-0.994;2022-09-29T10:07:22;10.10;;;7.30;;
62947;SDS011;51940;52.126;-0.994;2022-09-29T10:09:51;12.30;;;7.60;;
62947;SDS011;51940;52.126;-0.994;2022-09-29T10:12:18;10.20;;;7.40;;
62947;SDS011;51940;52.126;-0.994;2022-09-29T10:14:54;9.50;;;7.10;;
62947;SDS011;51940;52.126;-0.994;2022-09-29T10:17:24;11.00;;;6.80;;
62947;SDS011;51940;52.126;-0.994;2022-09-29T10:19:58;9.10;;;6.70;;
62947;SDS011;51940;52.126;-0.994;2022-09-29T10:22:26;11.70;;;6.90;;
62947;SDS011;51940;52.126;-0.994;2022-09-29T10:25:15;9.50;;;6.70;;
62947;SDS011;51940;52.126;-0.994;2022-09-29T10:27:44;9.00;;;6.10;;
62947;SDS011;51940;52.126;-0.994;2022-09-29T10:30:16;7.30;;;5.70;;
62947;SDS011;51940;52.126;-0.994;2022-09-29T10:32:57;6.90;;;5.40;;
62947;SDS011;51940;52.126;-0.994;2022-09-29T10:35:25;8.00;;;5.60;;
62947;SDS011;51940;52.126;-0.994;2022-09-29T10:38:04;8.60;;;5.50;;
62947;SDS011;51940;52.126;-0.994;2022-09-29T10:40:32;7.80;;;5.40;;
62947;SDS011;51940;52.126;-0.994;2022-09-29T10:42:59;6.90;;;4.90;;
62947;SDS011;51940;52.126;-0.994;2022-09-29T10:45:46;6.60;;;5.20;;
62947;SDS011;51940;52.126;-0.994;2022-09-29T10:48:13;8.30;;;4.90;;
62947;SDS011;51940;52.126;-0.994;2022-09-29T10:53:25;6.10;;;4.80;;
62947;SDS011;51940;52.126;-0.994;2022-09-29T10:55:57;9.60;;;4.90;;
62947;SDS011;51940;52.126;-0.994;2022-09-29T10:58:33;7.00;;;4.30;;
62947;SDS011;51940;52.126;-0.994;2022-09-29T11:01:11;5.60;;;4.50;;
62947;SDS011;51940;52.126;-0.994;2022-09-29T11:03:39;4.50;;;4.10;;
62947;SDS011;51940;52.126;-0.994;2022-09-29T11:06:12;5.10;;;4.30;;
62947;SDS011;51940;52.126;-0.994;2022-09-29T11:08:54;7.60;;;4.70;;
62947;SDS011;51940;52.126;-0.994;2022-09-29T11:13:57;5.30;;;3.50;;
62947;SDS011;51940;52.126;-0.994;2022-09-29T11:16:27;4.70;;;3.50;;
62947;SDS011;51940;52.126;-0.994;2022-09-29T11:18:56;5.10;;;3.10;;
62947;SDS011;51940;52.126;-0.994;2022-09-29T11:24:14;3.40;;;2.60;;
62947;SDS011;51940;52.126;-0.994;2022-09-29T11:39:51;3.10;;;2.30;;
62947;SDS011;51940;52.126;-0.994;2022-09-29T11:44:59;2.30;;;2.00;;
62947;SDS011;51940;52.126;-0.994;2022-09-29T11:53:27;2.80;;;1.80;;
62947;SDS011;51940;52.126;-0.994;2022-09-29T11:56:03;3.20;;;1.60;;
62947;SDS011;51940;52.126;-0.994;2022-09-29T12:01:55;1.50;;;1.40;;
62947;SDS011;51940;52.126;-0.994;2022-09-29T12:17:57;2.30;;;2.10;;
62947;SDS011;51940;52.126;-0.994;2022-09-29T12:20:35;2.30;;;2.10;;
62947;SDS011;51940;52.126;-0.994;2022-09-29T12:23:08;2.30;;;2.00;;
62947;SDS011;51940;52.126;-0.994;2022-09-29T12:25:38;2.30;;;2.10;;
62947;SDS011;51940;52.126;-0.994;2022-09-29T12:28:13;2.30;;;2.20;;
62947;SDS011;51940;52.126;-0.994;2022-09-29T12:33:33;2.20;;;2.00;;
62947;SDS011;51940;52.126;-0.994;2022-09-29T12:42:05;2.50;;;2.30;;
62947;SDS011;51940;52.126;-0.994;2022-09-29T12:50:37;2.70;;;2.00;;
62947;SDS011;51940;52.126;-0.994;2022-09-29T12:53:15;2.60;;;2.40;;
62947;SDS011;51940;52.126;-0.994;2022-09-29T12:55:49;3.00;;;2.20;;
62947;SDS011;51940;52.126;-0.994;2022-09-29T13:01:21;2.80;;;2.20;;
62947;SDS011;51940;52.126;-0.994;2022-09-29T13:09:22;2.20;;;1.90;;
62947;SDS011;51940;52.126;-0.994;2022-09-29T13:12:26;2.20;;;2.00;;
62947;SDS011;51940;52.126;-0.994;2022-09-29T13:23:34;2.10;;;1.70;;
62947;SDS011;51940;52.126;-0.994;2022-09-29T13:28:52;4.00;;;1.80;;
62947;SDS011;51940;52.126;-0.994;2022-09-29T13:31:34;1.80;;;1.50;;
62947;SDS011;51940;52.126;-0.994;2022-09-29T13:34:03;1.90;;;1.70;;
62947;SDS011;51940;52.126;-0.994;2022-09-29T13:36:34;1.60;;;1.50;;
62947;SDS011;51940;52.126;-0.994;2022-09-29T13:39:07;2.30;;;1.50;;
62947;SDS011;51940;52.126;-0.994;2022-09-29T13:41:53;3.20;;;1.40;;
62947;SDS011;51940;52.126;-0.994;2022-09-29T13:44:26;2.10;;;1.50;;
62947;SDS011;51940;52.126;-0.994;2022-09-29T13:46:53;1.50;;;1.40;;
62947;SDS011;51940;52.126;-0.994;2022-09-29T13:51:56;1.50;;;1.10;;
62947;SDS011;51940;52.126;-0.994;2022-09-29T13:54:38;1.50;;;1.40;;
62947;SDS011;51940;52.126;-0.994;2022-09-29T13:59:32;2.00;;;1.60;;
62947;SDS011;51940;52.126;-0.994;2022-09-29T14:01:59;2.20;;;1.20;;
62947;SDS011;51940;52.126;-0.994;2022-09-29T14:04:42;1.70;;;1.20;;
62947;SDS011;51940;52.126;-0.994;2022-09-29T14:07:13;1.30;;;1.10;;
62947;SDS011;51940;52.126;-0.994;2022-09-29T14:10:04;1.20;;;1.10;;
62947;SDS011;51940;52.126;-0.994;2022-09-29T14:12:43;1.70;;;1.20;;
62947;SDS011;51940;52.126;-0.994;2022-09-29T14:15:10;1.40;;;1.30;;
62947;SDS011;51940;52.126;-0.994;2022-09-29T14:17:42;1.40;;;1.10;;
62947;SDS011;51940;52.126;-0.994;2022-09-29T14:20:16;1.50;;;1.30;;
62947;SDS011;51940;52.126;-0.994;2022-09-29T14:27:42;1.20;;;1.10;;
62947;SDS011;51940;52.126;-0.994;2022-09-29T14:30:19;1.10;;;1.10;;
62947;SDS011;51940;52.126;-0.994;2022-09-29T14:32:58;2.10;;;1.00;;
62947;SDS011;51940;52.126;-0.994;2022-09-29T14:35:33;1.50;;;1.10;;
62947;SDS011;51940;52.126;-0.994;2022-09-29T14:38:15;1.30;;;1.20;;
62947;SDS011;51940;52.126;-0.994;2022-09-29T15:04:10;1.70;;;1.20;;
62947;SDS011;51940;52.126;-0.994;2022-09-29T15:06:45;1.10;;;1.00;;
62947;SDS011;51940;52.126;-0.994;2022-09-29T15:09:22;1.20;;;1.10;;
62947;SDS011;51940;52.126;-0.994;2022-09-29T15:11:53;1.50;;;1.20;;
62947;SDS011;51940;52.126;-0.994;2022-09-29T15:14:28;2.00;;;1.60;;
62947;SDS011;51940;52.126;-0.994;2022-09-29T15:16:59;1.10;;;1.00;;
62947;SDS011;51940;52.126;-0.994;2022-09-29T15:19:59;1.30;;;1.20;;
62947;SDS011;51940;52.126;-0.994;2022-09-29T15:25:37;1.30;;;1.20;;
62947;SDS011;51940;52.126;-0.994;2022-09-29T15:28:27;2.50;;;1.20;;
62947;SDS011;51940;52.126;-0.994;2022-09-29T15:31:02;1.80;;;1.30;;
62947;SDS011;51940;52.126;-0.994;2022-09-29T15:33:33;2.10;;;1.30;;
62947;SDS011;51940;52.126;-0.994;2022-09-29T15:36:04;1.20;;;1.10;;
62947;SDS011;51940;52.126;-0.994;2022-09-29T15:41:04;1.70;;;1.50;;
62947;SDS011;51940;52.126;-0.994;2022-09-29T15:49:03;1.70;;;1.30;;
62947;SDS011;51940;52.126;-0.994;2022-09-29T15:51:56;1.30;;;1.20;;
62947;SDS011;51940;52.126;-0.994;2022-09-29T15:54:24;1.70;;;1.20;;
62947;SDS011;51940;52.126;-0.994;2022-09-29T15:56:57;1.80;;;1.30;;
62947;SDS011;51940;52.126;-0.994;2022-09-29T15:59:42;1.00;;;0.90;;
62947;SDS011;51940;52.126;-0.994;2022-09-29T16:02:34;1.70;;;1.00;;
62947;SDS011;51940;52.126;-0.994;2022-09-29T16:05:05;4.50;;;1.60;;
62947;SDS011;51940;52.126;-0.994;2022-09-29T16:07:40;2.10;;;1.20;;
62947;SDS011;51940;52.126;-0.994;2022-09-29T16:10:16;1.20;;;1.10;;
62947;SDS011;51940;52.126;-0.994;2022-09-29T16:12:45;1.80;;;1.10;;
62947;SDS011;51940;52.126;-0.994;2022-09-29T16:15:41;1.20;;;1.10;;
62947;SDS011;51940;52.126;-0.994;2022-09-29T16:18:08;1.30;;;1.00;;
62947;SDS011;51940;52.126;-0.994;2022-09-29T16:20:41;1.20;;;1.10;;
62947;SDS011;51940;52.126;-0.994;2022-09-29T16:23:14;1.40;;;1.30;;
62947;SDS011;51940;52.126;-0.994;2022-09-29T16:25:45;1.40;;;1.30;;
62947;SDS011;51940;52.126;-0.994;2022-09-29T16:28:23;2.50;;;2.00;;
62947;SDS011;51940;52.126;-0.994;2022-09-29T16:31:00;4.10;;;1.60;;
62947;SDS011;51940;52.126;-0.994;2022-09-29T16:33:56;2.40;;;1.70;;
62947;SDS011;51940;52.126;-0.994;2022-09-29T16:36:26;2.50;;;1.40;;
62947;SDS011;51940;52.126;-0.994;2022-09-29T16:38:58;3.20;;;1.60;;
62947;SDS011;51940;52.126;-0.994;2022-09-29T16:46:40;2.90;;;1.70;;
62947;SDS011;51940;52.126;-0.994;2022-09-29T16:49:22;1.30;;;1.20;;
62947;SDS011;51940;52.126;-0.994;2022-09-29T16:51:50;2.30;;;1.50;;
62947;SDS011;51940;52.126;-0.994;2022-09-29T16:54:21;1.50;;;1.40;;
62947;SDS011;51940;52.126;-0.994;2022-09-29T16:57:08;2.40;;;1.40;;
62947;SDS011;51940;52.126;-0.994;2022-09-29T16:59:34;1.70;;;1.20;;
62947;SDS011;51940;52.126;-0.994;2022-09-29T17:01:59;1.70;;;1.30;;
62947;SDS011;51940;52.126;-0.994;2022-09-29T17:04:25;2.00;;;1.60;;
62947;SDS011;51940;52.126;-0.994;2022-09-29T17:06:50;2.50;;;1.50;;
62947;SDS011;51940;52.126;-0.994;2022-09-29T17:09:25;1.80;;;1.30;;
62947;SDS011;51940;52.126;-0.994;2022-09-29T17:11:51;2.50;;;1.50;;
62947;SDS011;51940;52.126;-0.994;2022-09-29T17:14:17;3.60;;;1.40;;
62947;SDS011;51940;52.126;-0.994;2022-09-29T17:16:42;2.20;;;1.40;;
62947;SDS011;51940;52.126;-0.994;2022-09-29T17:19:09;1.50;;;1.30;;
62947;SDS011;51940;52.126;-0.994;2022-09-29T17:21:35;4.30;;;2.00;;
62947;SDS011;51940;52.126;-0.994;2022-09-29T17:24:01;1.90;;;1.40;;
62947;SDS011;51940;52.126;-0.994;2022-09-29T17:26:34;2.00;;;1.70;;
62947;SDS011;51940;52.126;-0.994;2022-09-29T17:29:20;3.80;;;1.70;;
62947;SDS011;51940;52.126;-0.994;2022-09-29T17:31:45;2.70;;;1.50;;
62947;SDS011;51940;52.126;-0.994;2022-09-29T17:34:11;3.30;;;1.80;;
62947;SDS011;51940;52.126;-0.994;2022-09-29T17:36:38;2.00;;;1.80;;
62947;SDS011;51940;52.126;-0.994;2022-09-29T17:39:04;2.10;;;1.70;;
62947;SDS011;51940;52.126;-0.994;2022-09-29T17:41:30;1.90;;;1.60;;
62947;SDS011;51940;52.126;-0.994;2022-09-29T17:43:57;1.80;;;1.60;;
62947;SDS011;51940;52.126;-0.994;2022-09-29T17:46:23;2.20;;;1.70;;
62947;SDS011;51940;52.126;-0.994;2022-09-29T17:48:48;2.80;;;1.60;;
62947;SDS011;51940;52.126;-0.994;2022-09-29T17:51:14;2.20;;;1.50;;
62947;SDS011;51940;52.126;-0.994;2022-09-29T17:53:44;2.30;;;2.00;;
62947;SDS011;51940;52.126;-0.994;2022-09-29T17:56:21;2.30;;;1.90;;
62947;SDS011;51940;52.126;-0.994;2022-09-29T17:58:53;2.40;;;1.70;;
62947;SDS011;51940;52.126;-0.994;2022-09-29T18:01:27;3.00;;;2.00;;
62947;SDS011;51940;52.126;-0.994;2022-09-29T18:03:58;3.10;;;2.00;;